createdAt,value
2019-04-21T00:02:05.650Z,4.14
2019-04-21T00:04:46.785Z,3.92
2019-04-21T00:07:29.696Z,3.81
2019-04-21T00:09:58.213Z,3.39
2019-04-21T00:12:22.781Z,3.36
2019-04-21T00:14:46.279Z,3.40
2019-04-21T00:17:13.195Z,3.48
2019-04-21T00:19:46.002Z,3.75
2019-04-21T00:22:29.340Z,3.81
2019-04-21T00:25:04.056Z,3.87
2019-04-21T00:27:33.737Z,3.86
2019-04-21T00:30:05.929Z,3.79
2019-04-21T00:32:29.233Z,3.62
2019-04-21T00:34:53.460Z,3.56
2019-04-21T00:37:26.789Z,3.66
2019-04-21T00:40:09.460Z,3.71
2019-04-21T00:42:34.537Z,3.64
2019-04-21T00:45:01.787Z,3.49
2019-04-21T00:48:00.905Z,3.74
2019-04-21T00:50:17.947Z,3.58
2019-04-21T00:52:56.242Z,3.49
2019-04-21T00:55:33.958Z,3.29
2019-04-21T00:58:00.076Z,3.40
2019-04-21T01:02:58.856Z,3.37
2019-04-21T01:05:33.784Z,3.33
2019-04-21T01:07:56.208Z,3.35
2019-04-21T01:10:17.471Z,3.23
2019-04-21T01:12:56.322Z,2.93
2019-04-21T01:18:00.502Z,2.86
2019-04-21T01:20:16.837Z,3.21
2019-04-21T01:22:39.272Z,3.12
2019-04-21T01:25:17.508Z,3.13
2019-04-21T01:27:56.430Z,2.99
2019-04-21T01:30:29.598Z,2.87
2019-04-21T01:33:00.080Z,2.96
2019-04-21T01:35:38.201Z,2.85
2019-04-21T01:38:01.897Z,2.77
2019-04-21T01:43:03.579Z,2.59
2019-04-21T01:45:35.538Z,2.53
2019-04-21T01:48:02.495Z,2.28
2019-04-21T01:50:34.559Z,2.37
2019-04-21T01:53:17.524Z,2.36
2019-04-21T01:56:11.623Z,2.43
2019-04-21T01:58:38.041Z,2.45
2019-04-21T02:01:15.953Z,2.48
2019-04-21T02:03:52.703Z,2.54
2019-04-21T02:06:23.667Z,2.64
2019-04-21T02:08:48.814Z,2.63
2019-04-21T02:11:26.144Z,2.74
2019-04-21T02:13:59.184Z,2.78
2019-04-21T02:16:24.880Z,2.82
2019-04-21T02:18:49.456Z,2.84
2019-04-21T02:21:17.814Z,2.80
2019-04-21T02:24:11.751Z,2.78
2019-04-21T02:26:22.625Z,2.92
2019-04-21T02:28:56.037Z,2.85
2019-04-21T02:31:40.456Z,2.81
2019-04-21T02:41:45.613Z,2.79
2019-04-21T02:44:08.331Z,2.75
2019-04-21T02:46:40.097Z,2.68
2019-04-21T02:49:17.228Z,2.59
2019-04-21T02:56:43.871Z,2.19
2019-04-21T02:59:15.305Z,1.95
2019-04-21T03:04:34.619Z,2.04
2019-04-21T03:12:20.636Z,1.73
2019-04-21T03:20:14.831Z,1.95
2019-04-21T03:27:46.543Z,1.93
2019-04-21T03:37:39.766Z,1.77
2019-04-21T03:42:34.338Z,1.76
2019-04-21T03:44:55.474Z,1.63
2019-04-21T03:50:05.244Z,1.66
2019-04-21T04:00:42.526Z,1.79
2019-04-21T04:03:35.744Z,1.84
2019-04-21T04:08:52.554Z,1.57
2019-04-21T04:11:19.790Z,1.56
2019-04-21T04:13:53.719Z,1.55
2019-04-21T04:16:10.165Z,1.66
2019-04-21T04:18:46.617Z,1.65
2019-04-21T04:21:24.745Z,1.73
2019-04-21T04:23:47.179Z,1.71
2019-04-21T04:31:26.081Z,1.49
2019-04-21T04:33:48.337Z,1.47
2019-04-21T04:36:31.917Z,1.29
2019-04-21T04:41:30.478Z,1.30
2019-04-21T04:43:57.278Z,1.57
2019-04-21T04:48:51.385Z,1.76
2019-04-21T04:51:36.702Z,1.70
2019-04-21T04:53:47.410Z,1.75
2019-04-21T04:56:38.777Z,1.84
2019-04-21T05:06:42.695Z,2.63
2019-04-21T05:09:11.007Z,2.78
2019-04-21T05:14:18.384Z,2.95
2019-04-21T05:19:10.494Z,3.13
2019-04-21T05:21:37.604Z,3.48
2019-04-21T05:23:55.940Z,3.75
2019-04-21T05:26:23.400Z,3.74
2019-04-21T05:28:50.964Z,3.94
2019-04-21T05:32:04.985Z,4.00
2019-04-21T05:34:30.582Z,4.17
2019-04-21T05:37:08.850Z,4.42
2019-04-21T05:39:43.480Z,4.63
2019-04-21T05:42:07.808Z,4.86
2019-04-21T05:47:26.523Z,5.39
2019-04-21T05:49:55.657Z,5.67
2019-04-21T05:52:22.578Z,6.00
2019-04-21T05:55:01.253Z,6.30
2019-04-21T05:57:31.065Z,6.49
2019-04-21T06:00:01.233Z,6.49
2019-04-21T06:02:29.297Z,6.46
2019-04-21T06:07:46.137Z,6.70
2019-04-21T06:12:36.113Z,7.21
2019-04-21T06:15:26.585Z,7.22
2019-04-21T06:17:35.068Z,7.46
2019-04-21T06:20:07.856Z,7.70
2019-04-21T06:22:33.289Z,7.82
2019-04-21T06:25:31.187Z,7.91
2019-04-21T06:27:50.991Z,8.12
2019-04-21T06:30:03.314Z,8.47
2019-04-21T06:32:46.850Z,8.59
2019-04-21T06:38:01.440Z,8.75
2019-04-21T06:43:15.679Z,9.35
2019-04-21T06:45:36.570Z,9.55
2019-04-21T06:48:05.982Z,9.55
2019-04-21T06:50:30.199Z,9.93
2019-04-21T06:53:06.036Z,10.02
2019-04-21T06:55:32.329Z,10.28
2019-04-21T06:58:00.685Z,10.38
2019-04-21T07:00:34.822Z,10.74
2019-04-21T07:03:14.158Z,10.70
2019-04-21T07:05:35.871Z,10.86
2019-04-21T07:08:23.238Z,11.36
2019-04-21T07:10:31.819Z,11.77
2019-04-21T07:13:03.497Z,11.93
2019-04-21T07:15:37.004Z,12.11
2019-04-21T07:18:04.384Z,12.57
2019-04-21T07:20:36.751Z,12.74
2019-04-21T07:23:11.948Z,13.16
2019-04-21T07:25:39.118Z,13.21
2019-04-21T07:28:10.558Z,13.44
2019-04-21T07:31:00.628Z,13.69
2019-04-21T07:33:37.680Z,13.99
2019-04-21T07:35:37.709Z,13.83
2019-04-21T07:38:10.006Z,14.02
2019-04-21T07:40:35.383Z,14.19
2019-04-21T07:43:09.318Z,14.55
2019-04-21T07:45:35.158Z,14.81
2019-04-21T07:48:21.632Z,14.97
2019-04-21T07:50:52.021Z,15.31
2019-04-21T07:53:36.490Z,15.55
2019-04-21T07:55:39.241Z,15.95
2019-04-21T07:58:31.775Z,16.06
2019-04-21T08:08:26.581Z,16.90
2019-04-21T08:10:57.277Z,16.57
2019-04-21T08:13:39.975Z,16.66
2019-04-21T08:16:08.675Z,16.92
2019-04-21T08:18:37.781Z,17.49
2019-04-21T08:21:02.683Z,17.40
2019-04-21T08:23:32.882Z,17.54
2019-04-21T08:26:06.092Z,18.07
2019-04-21T08:31:09.549Z,18.60
2019-04-21T08:33:38.263Z,18.78
2019-04-21T08:38:38.805Z,19.00
2019-04-21T08:41:11.088Z,19.04
2019-04-21T08:43:43.159Z,19.33
2019-04-21T08:46:05.425Z,19.79
2019-04-21T08:48:40.425Z,19.90
2019-04-21T08:51:24.536Z,20.25
2019-04-21T08:53:41.066Z,19.69
2019-04-21T08:56:34.550Z,20.08
2019-04-21T08:59:26.815Z,20.78
2019-04-21T09:02:23.516Z,21.29
2019-04-21T09:04:52.851Z,22.10
2019-04-21T09:07:28.759Z,22.58
2019-04-21T09:09:54.756Z,23.20
2019-04-21T09:12:24.399Z,23.20
2019-04-21T09:14:50.500Z,23.42
2019-04-21T09:17:14.845Z,23.38
2019-04-21T09:20:13.932Z,23.99
2019-04-21T09:22:25.559Z,24.57
2019-04-21T09:24:51.900Z,25.17
2019-04-21T09:27:21.824Z,24.27
2019-04-21T09:29:39.319Z,24.56
2019-04-21T09:32:12.397Z,23.70
2019-04-21T09:34:40.441Z,24.26
2019-04-21T09:37:19.012Z,25.53
2019-04-21T09:39:40.995Z,25.80
2019-04-21T09:42:08.858Z,26.41
2019-04-21T09:44:40.938Z,26.79
2019-04-21T09:47:09.221Z,27.41
2019-04-21T09:49:40.087Z,28.35
2019-04-21T09:52:18.554Z,28.39
2019-04-21T09:54:49.359Z,28.59
2019-04-21T09:57:23.983Z,28.69
2019-04-21T09:59:47.554Z,28.94
2019-04-21T10:02:18.218Z,29.25
2019-04-21T10:04:42.446Z,29.38
2019-04-21T10:07:22.470Z,29.42
2019-04-21T10:09:41.705Z,29.74
2019-04-21T10:12:10.399Z,30.51
2019-04-21T10:14:39.131Z,29.46
2019-04-21T10:17:27.577Z,29.59
2019-04-21T10:19:56.449Z,29.56
2019-04-21T10:22:26.593Z,29.60
2019-04-21T10:24:56.382Z,29.29
2019-04-21T10:27:25.494Z,29.96
2019-04-21T10:29:55.995Z,30.76
2019-04-21T10:32:25.401Z,30.29
2019-04-21T10:34:55.130Z,30.71
2019-04-21T10:37:36.548Z,29.31
2019-04-21T10:39:54.229Z,29.42
2019-04-21T10:42:23.697Z,29.37
2019-04-21T10:44:52.716Z,29.49
2019-04-21T10:47:22.798Z,30.30
2019-04-21T10:49:52.744Z,31.26
2019-04-21T10:52:30.964Z,31.15
2019-04-21T10:55:20.868Z,30.51
2019-04-21T10:57:31.086Z,31.20
2019-04-21T11:00:01.355Z,31.30
2019-04-21T11:02:46.478Z,32.13
2019-04-21T11:05:16.482Z,31.59
2019-04-21T11:08:07.303Z,30.95
2019-04-21T11:10:25.705Z,30.91
2019-04-21T11:12:54.751Z,31.03
2019-04-21T11:15:23.430Z,31.91
2019-04-21T11:17:52.383Z,32.83
2019-04-21T11:20:22.594Z,32.66
2019-04-21T11:22:51.599Z,33.37
2019-04-21T11:25:20.343Z,34.29
2019-04-21T11:27:49.139Z,34.13
2019-04-21T11:30:20.555Z,34.35
2019-04-21T11:32:49.788Z,34.07
2019-04-21T11:35:19.774Z,35.19
2019-04-21T11:37:48.491Z,34.81
2019-04-21T11:40:19.808Z,34.73
2019-04-21T11:42:48.163Z,33.84
2019-04-21T11:45:28.399Z,33.95
2019-04-21T11:48:14.440Z,33.66
2019-04-21T11:50:43.444Z,33.17
2019-04-21T11:53:12.736Z,32.49
2019-04-21T11:55:44.811Z,32.95
2019-04-21T11:58:12.073Z,33.31
2019-04-21T12:00:42.108Z,33.30
2019-04-21T12:03:14.839Z,33.34
2019-04-21T12:05:41.496Z,33.95
2019-04-21T12:08:21.178Z,34.55
2019-04-21T12:10:41.833Z,34.57
2019-04-21T12:13:11.994Z,33.78
2019-04-21T12:15:40.995Z,33.42
2019-04-21T12:18:10.124Z,34.35
2019-04-21T12:20:39.693Z,35.17
2019-04-21T12:23:08.825Z,35.40
2019-04-21T12:25:40.949Z,35.49
2019-04-21T12:28:10.109Z,35.68
2019-04-21T12:30:39.844Z,36.19
2019-04-21T12:33:12.222Z,36.66
2019-04-21T12:35:40.079Z,37.31
2019-04-21T12:38:08.909Z,36.55
2019-04-21T12:40:38.833Z,37.68
2019-04-21T12:43:08.476Z,38.06
2019-04-21T12:45:37.870Z,38.20
2019-04-21T12:48:06.620Z,37.04
2019-04-21T12:50:36.007Z,36.29
2019-04-21T12:53:05.350Z,37.29
2019-04-21T12:55:37.427Z,37.64
2019-04-21T12:58:05.551Z,36.65
2019-04-21T13:00:34.263Z,37.27
2019-04-21T13:03:03.649Z,37.93
2019-04-21T13:05:33.766Z,38.51
2019-04-21T13:08:03.782Z,38.56
2019-04-21T13:10:33.943Z,37.76
2019-04-21T13:13:03.838Z,38.30
2019-04-21T13:15:33.635Z,36.70
2019-04-21T13:18:02.730Z,37.38
2019-04-21T13:20:31.422Z,39.10
2019-04-21T13:23:00.112Z,38.35
2019-04-21T13:25:29.739Z,38.80
2019-04-21T13:27:58.698Z,39.18
2019-04-21T13:30:28.401Z,38.38
2019-04-21T13:32:58.642Z,39.78
2019-04-21T13:35:28.878Z,38.39
2019-04-21T13:37:58.389Z,39.73
2019-04-21T13:41:12.206Z,40.10
2019-04-21T13:43:27.229Z,38.65
2019-04-21T13:45:57.390Z,39.60
2019-04-21T13:48:26.676Z,40.24
2019-04-21T13:50:55.405Z,38.99
2019-04-21T13:53:25.003Z,38.45
2019-04-21T13:55:53.730Z,39.17
2019-04-21T13:58:22.414Z,40.38
2019-04-21T14:00:52.370Z,40.54
2019-04-21T14:03:23.433Z,40.20
2019-04-21T14:05:51.840Z,40.49
2019-04-21T14:08:21.105Z,39.39
2019-04-21T14:10:51.391Z,40.08
2019-04-21T14:13:20.432Z,40.91
2019-04-21T14:15:51.656Z,41.14
2019-04-21T14:18:20.627Z,40.66
2019-04-21T14:20:49.517Z,39.01
2019-04-21T14:23:29.441Z,38.82
2019-04-21T14:25:49.990Z,39.19
2019-04-21T14:28:19.934Z,39.93
2019-04-21T14:30:48.678Z,38.44
2019-04-21T14:33:18.295Z,38.40
2019-04-21T14:35:47.228Z,39.24
2019-04-21T14:38:16.549Z,40.09
2019-04-21T14:40:46.140Z,40.91
2019-04-21T14:43:16.460Z,40.68
2019-04-21T14:45:56.821Z,40.96
2019-04-21T14:48:57.227Z,41.13
2019-04-21T14:51:37.044Z,41.35
2019-04-21T14:54:14.052Z,39.64
2019-04-21T14:56:44.981Z,40.11
2019-04-21T14:59:15.098Z,40.27
2019-04-21T15:01:44.154Z,40.30
2019-04-21T15:04:14.395Z,39.98
2019-04-21T15:06:43.363Z,38.33
2019-04-21T15:09:13.237Z,39.11
2019-04-21T15:11:42.233Z,39.43
2019-04-21T15:14:11.706Z,39.02
2019-04-21T15:16:40.882Z,38.50
2019-04-21T15:19:10.811Z,38.53
2019-04-21T15:21:40.510Z,36.73
2019-04-21T15:24:09.272Z,36.35
2019-04-21T15:26:38.016Z,37.80
2019-04-21T15:29:06.857Z,38.46
2019-04-21T15:31:38.295Z,39.15
2019-04-21T15:34:07.311Z,39.84
2019-04-21T15:36:37.703Z,39.29
2019-04-21T15:39:09.852Z,39.46
2019-04-21T15:41:38.717Z,38.86
2019-04-21T15:44:08.282Z,39.18
2019-04-21T15:46:39.904Z,40.08
2019-04-21T15:49:09.323Z,39.19
2019-04-21T15:51:38.361Z,38.90
2019-04-21T15:54:08.724Z,39.54
2019-04-21T15:56:42.681Z,38.61
2019-04-21T15:59:24.426Z,38.80
2019-04-21T16:02:00.918Z,37.97
2019-04-21T16:04:30.704Z,37.48
2019-04-21T16:07:01.663Z,37.39
2019-04-21T16:09:32.688Z,37.31
2019-04-21T16:12:01.894Z,37.24
2019-04-21T16:14:32.331Z,35.58
2019-04-21T16:17:01.317Z,36.04
2019-04-21T16:19:31.246Z,36.19
2019-04-21T16:22:01.114Z,36.27
2019-04-21T16:24:30.878Z,35.55
2019-04-21T16:27:03.506Z,36.12
2019-04-21T16:29:31.211Z,35.89
2019-04-21T16:32:01.589Z,36.23
2019-04-21T16:34:42.790Z,36.73
2019-04-21T16:37:01.506Z,35.54
2019-04-21T16:39:31.525Z,35.85
2019-04-21T16:42:00.596Z,35.89
2019-04-21T16:44:29.499Z,35.04
2019-04-21T16:46:59.300Z,34.21
2019-04-21T16:49:29.501Z,34.26
2019-04-21T16:52:30.050Z,34.54
2019-04-21T16:55:11.254Z,34.72
2019-04-21T16:57:43.822Z,35.36
2019-04-21T17:00:30.164Z,34.86
2019-04-21T17:02:50.395Z,34.44
2019-04-21T17:05:20.399Z,34.59
2019-04-21T17:07:49.278Z,33.52
2019-04-21T17:10:18.053Z,33.19
2019-04-21T17:12:47.988Z,33.01
2019-04-21T17:15:34.090Z,32.82
2019-04-21T17:18:05.626Z,31.28
2019-04-21T17:20:33.283Z,31.01
2019-04-21T17:22:49.486Z,30.69
2019-04-21T17:25:21.534Z,30.42
2019-04-21T17:27:49.091Z,30.66
2019-04-21T17:30:18.809Z,30.33
2019-04-21T17:32:49.792Z,29.46
2019-04-21T17:35:19.804Z,28.89
2019-04-21T17:37:50.013Z,28.72
2019-04-21T17:40:24.079Z,27.79
2019-04-21T17:43:01.598Z,27.23
2019-04-21T17:45:23.919Z,27.40
2019-04-21T17:47:59.840Z,26.56
2019-04-21T17:50:33.527Z,26.21
2019-04-21T17:53:10.798Z,26.53
2019-04-21T17:55:40.596Z,25.45
2019-04-21T17:58:21.937Z,24.47
2019-04-21T18:01:10.138Z,23.14
2019-04-21T18:03:40.638Z,21.67
2019-04-21T18:05:56.303Z,20.72
2019-04-21T18:08:29.533Z,20.11
2019-04-21T18:10:54.336Z,19.72
2019-04-21T18:13:17.596Z,19.31
2019-04-21T18:15:58.631Z,18.82
2019-04-21T18:18:14.489Z,18.62
2019-04-21T18:20:46.155Z,18.38
2019-04-21T18:23:40.846Z,18.03
2019-04-21T18:26:07.661Z,17.87
2019-04-21T18:28:30.899Z,17.63
2019-04-21T18:31:06.875Z,17.25
2019-04-21T18:33:40.501Z,16.92
2019-04-21T18:36:21.299Z,16.68
2019-04-21T18:39:21.883Z,16.49
2019-04-21T18:41:42.716Z,16.18
2019-04-21T18:44:36.477Z,15.89
2019-04-21T18:47:19.902Z,15.39
2019-04-21T18:49:54.495Z,14.92
2019-04-21T18:52:45.312Z,14.63
2019-04-21T18:55:09.901Z,14.37
2019-04-21T18:57:37.395Z,14.03
2019-04-21T18:59:59.450Z,13.82
2019-04-21T19:02:36.811Z,13.57
2019-04-21T19:05:03.107Z,13.56
2019-04-21T19:07:45.420Z,13.30
2019-04-21T19:13:28.520Z,12.84
2019-04-21T19:15:18.080Z,12.79
2019-04-21T19:18:16.493Z,12.65
2019-04-21T19:22:47.270Z,12.75
2019-04-21T19:25:20.909Z,12.82
2019-04-21T19:27:49.155Z,12.64
2019-04-21T19:30:28.761Z,12.67
2019-04-21T19:32:54.441Z,12.53
2019-04-21T19:35:07.102Z,12.45
2019-04-21T19:37:46.414Z,12.27
2019-04-21T19:40:25.233Z,12.04
2019-04-21T19:42:50.314Z,11.93
2019-04-21T19:45:24.288Z,12.03
2019-04-21T19:47:53.208Z,12.25
2019-04-21T19:50:30.950Z,12.13
2019-04-21T19:52:49.754Z,12.03
2019-04-21T19:55:09.790Z,11.99
2019-04-21T19:57:38.914Z,11.83
2019-04-21T20:00:10.108Z,11.63
2019-04-21T20:02:40.220Z,11.56
2019-04-21T20:05:14.673Z,11.56
2019-04-21T20:08:01.339Z,11.52
2019-04-21T20:10:44.581Z,11.48
2019-04-21T20:13:02.889Z,11.37
2019-04-21T20:15:35.849Z,11.32
2019-04-21T20:17:53.066Z,11.29
2019-04-21T20:20:13.273Z,11.26
2019-04-21T20:22:45.409Z,11.34
2019-04-21T20:25:17.464Z,11.28
2019-04-21T20:27:54.550Z,11.22
2019-04-21T20:30:34.711Z,11.16
2019-04-21T20:33:05.909Z,11.07
2019-04-21T20:35:48.575Z,10.98
2019-04-21T20:38:05.153Z,10.87
2019-04-21T20:40:30.927Z,10.79
2019-04-21T20:43:11.308Z,10.65
2019-04-21T20:45:40.282Z,10.58
2019-04-21T20:47:54.114Z,10.51
2019-04-21T20:50:35.379Z,10.15
2019-04-21T20:53:11.107Z,9.93
2019-04-21T20:55:37.043Z,9.90
2019-04-21T20:58:04.226Z,9.86
2019-04-21T21:00:54.553Z,9.87
2019-04-21T21:03:13.525Z,9.99
2019-04-21T21:05:37.083Z,10.08
2019-04-21T21:08:18.044Z,10.01
2019-04-21T21:10:38.611Z,10.14
2019-04-21T21:13:24.412Z,10.10
2019-04-21T21:16:01.904Z,9.99
2019-04-21T21:18:26.904Z,9.89
2019-04-21T21:20:49.799Z,9.81
2019-04-21T21:23:11.523Z,9.63
2019-04-21T21:25:51.000Z,9.66
2019-04-21T21:28:10.137Z,9.64
2019-04-21T21:30:43.101Z,9.26
2019-04-21T21:33:16.939Z,9.21
2019-04-21T21:35:42.457Z,9.14
2019-04-21T21:38:19.969Z,9.22
2019-04-21T21:40:45.517Z,9.23
2019-04-21T21:43:08.184Z,9.66
2019-04-21T21:45:40.044Z,9.88
2019-04-21T21:48:21.928Z,9.95
2019-04-21T21:50:45.708Z,10.22
2019-04-21T21:53:12.756Z,10.09
2019-04-21T21:55:35.895Z,10.03
2019-04-21T21:58:07.614Z,9.85
2019-04-21T22:00:41.891Z,9.65
2019-04-21T22:03:16.271Z,9.66
2019-04-21T22:05:48.226Z,9.52
2019-04-21T22:08:08.337Z,9.27
2019-04-21T22:10:37.078Z,8.90
2019-04-21T22:13:09.633Z,8.48
2019-04-21T22:15:37.564Z,8.41
2019-04-21T22:18:25.807Z,8.32
2019-04-21T22:20:55.203Z,8.14
2019-04-21T22:23:13.403Z,7.90
2019-04-21T22:25:41.637Z,7.95
2019-04-21T22:28:09.475Z,7.80
2019-04-21T22:30:42.900Z,7.88
2019-04-21T22:33:12.116Z,7.84
2019-04-21T22:35:46.297Z,7.59
2019-04-21T22:38:24.659Z,7.62
2019-04-21T22:40:51.890Z,7.67
2019-04-21T22:43:21.694Z,7.61
2019-04-21T22:45:41.291Z,7.63
2019-04-21T22:48:14.049Z,7.48
2019-04-21T22:50:40.749Z,7.42
2019-04-21T22:53:10.605Z,7.32
2019-04-21T22:55:40.918Z,7.11
2019-04-21T22:58:09.770Z,7.20
2019-04-21T23:00:44.664Z,7.14
2019-04-21T23:03:13.791Z,7.11
2019-04-21T23:05:42.998Z,7.04
2019-04-21T23:08:11.045Z,7.28
2019-04-21T23:10:41.477Z,7.27
2019-04-21T23:13:17.778Z,7.35
2019-04-21T23:15:46.116Z,7.23
2019-04-21T23:18:26.011Z,6.92
2019-04-21T23:20:58.798Z,6.83
2019-04-21T23:23:38.405Z,6.72
2019-04-21T23:26:01.031Z,6.59
2019-04-21T23:28:36.655Z,6.35
2019-04-21T23:31:00.786Z,6.30
2019-04-21T23:33:16.389Z,6.25
2019-04-21T23:35:47.809Z,6.42
2019-04-21T23:38:16.482Z,6.40
2019-04-21T23:40:51.688Z,6.42
2019-04-21T23:43:20.792Z,6.29
2019-04-21T23:45:46.973Z,6.09
2019-04-21T23:48:31.579Z,5.97
2019-04-21T23:50:54.848Z,6.02
2019-04-21T23:53:17.414Z,6.09
2019-04-21T23:55:47.409Z,5.91
2019-04-21T23:58:22.195Z,5.64
